sensor_id;sensor_type;location;lat;lon;timestamp;pressure;altitude;pressure_sealevel;temperature;humidity
9784;BME280;4931;44.874;-1.092;2022-09-13T00:00:35;100482.13;;;22.93;100.00
9784;BME280;4931;44.874;-1.092;2022-09-13T00:05:21;100471.88;;;23.01;100.00
9784;BME280;4931;44.874;-1.092;2022-09-13T00:10:07;100460.72;;;23.04;100.00
9784;BME280;4931;44.874;-1.092;2022-09-13T00:14:54;100462.25;;;22.98;100.00
9784;BME280;4931;44.874;-1.092;2022-09-13T00:19:39;100460.34;;;22.83;100.00
9784;BME280;4931;44.874;-1.092;2022-09-13T00:24:25;100435.91;;;22.80;100.00
9784;BME280;4931;44.874;-1.092;2022-09-13T00:29:10;100446.88;;;22.88;100.00
9784;BME280;4931;44.874;-1.092;2022-09-13T00:33:59;100438.31;;;23.01;100.00
9784;BME280;4931;44.874;-1.092;2022-09-13T00:38:44;100427.22;;;22.62;100.00
9784;BME280;4931;44.874;-1.092;2022-09-13T00:43:45;100434.28;;;22.98;100.00
9784;BME280;4931;44.874;-1.092;2022-09-13T00:48:31;100407.97;;;22.80;100.00
9784;BME280;4931;44.874;-1.092;2022-09-13T00:53:25;100410.44;;;22.85;100.00
9784;BME280;4931;44.874;-1.092;2022-09-13T00:58:17;100409.63;;;22.61;100.00
9784;BME280;4931;44.874;-1.092;2022-09-13T01:03:06;100394.47;;;22.62;100.00
9784;BME280;4931;44.874;-1.092;2022-09-13T01:07:55;100391.91;;;22.53;100.00
9784;BME280;4931;44.874;-1.092;2022-09-13T01:12:47;100380.13;;;22.64;100.00
9784;BME280;4931;44.874;-1.092;2022-09-13T01:17:35;100390.06;;;22.61;100.00
9784;BME280;4931;44.874;-1.092;2022-09-13T01:22:55;100392.84;;;22.61;100.00
9784;BME280;4931;44.874;-1.092;2022-09-13T01:28:16;100393.31;;;22.63;100.00
9784;BME280;4931;44.874;-1.092;2022-09-13T01:33:25;100387.94;;;22.54;100.00
9784;BME280;4931;44.874;-1.092;2022-09-13T01:38:31;100388.63;;;22.48;100.00
9784;BME280;4931;44.874;-1.092;2022-09-13T01:43:31;100380.31;;;22.32;100.00
9784;BME280;4931;44.874;-1.092;2022-09-13T01:48:31;100380.22;;;22.28;100.00
9784;BME280;4931;44.874;-1.092;2022-09-13T01:53:26;100382.53;;;22.22;100.00
9784;BME280;4931;44.874;-1.092;2022-09-13T01:58:21;100373.28;;;21.99;100.00
9784;BME280;4931;44.874;-1.092;2022-09-13T02:03:12;100381.44;;;21.88;100.00
9784;BME280;4931;44.874;-1.092;2022-09-13T02:08:05;100394.19;;;21.89;100.00
9784;BME280;4931;44.874;-1.092;2022-09-13T02:12:53;100409.47;;;21.76;100.00
9784;BME280;4931;44.874;-1.092;2022-09-13T02:17:43;100386.25;;;21.71;100.00
9784;BME280;4931;44.874;-1.092;2022-09-13T02:22:33;100371.78;;;21.66;100.00
9784;BME280;4931;44.874;-1.092;2022-09-13T02:27:25;100370.72;;;21.54;100.00
9784;BME280;4931;44.874;-1.092;2022-09-13T02:32:15;100375.81;;;21.68;100.00
9784;BME280;4931;44.874;-1.092;2022-09-13T02:37:03;100383.09;;;21.73;100.00
9784;BME280;4931;44.874;-1.092;2022-09-13T02:41:53;100393.44;;;21.72;100.00
9784;BME280;4931;44.874;-1.092;2022-09-13T02:46:58;100387.97;;;21.76;100.00
9784;BME280;4931;44.874;-1.092;2022-09-13T02:51:52;100388.44;;;21.62;100.00
9784;BME280;4931;44.874;-1.092;2022-09-13T02:56:44;100386.28;;;21.55;100.00
9784;BME280;4931;44.874;-1.092;2022-09-13T03:01:34;100383.75;;;21.66;100.00
9784;BME280;4931;44.874;-1.092;2022-09-13T03:06:26;100382.13;;;21.65;100.00
9784;BME280;4931;44.874;-1.092;2022-09-13T03:11:16;100388.44;;;21.62;100.00
9784;BME280;4931;44.874;-1.092;2022-09-13T03:16:27;100372.56;;;21.66;100.00
9784;BME280;4931;44.874;-1.092;2022-09-13T03:21:29;100370.94;;;21.65;100.00
9784;BME280;4931;44.874;-1.092;2022-09-13T03:26:48;100364.38;;;21.74;100.00
9784;BME280;4931;44.874;-1.092;2022-09-13T03:31:43;100363.03;;;21.67;100.00
9784;BME280;4931;44.874;-1.092;2022-09-13T03:36:40;100359.38;;;21.83;100.00
9784;BME280;4931;44.874;-1.092;2022-09-13T03:41:30;100344.38;;;21.71;100.00
9784;BME280;4931;44.874;-1.092;2022-09-13T03:46:20;100341.66;;;21.75;100.00
9784;BME280;4931;44.874;-1.092;2022-09-13T03:51:07;100347.63;;;21.74;100.00
9784;BME280;4931;44.874;-1.092;2022-09-13T03:55:56;100353.84;;;21.86;100.00
9784;BME280;4931;44.874;-1.092;2022-09-13T04:00:42;100352.00;;;21.75;100.00
9784;BME280;4931;44.874;-1.092;2022-09-13T04:05:27;100342.63;;;21.83;100.00
9784;BME280;4931;44.874;-1.092;2022-09-13T04:10:12;100327.34;;;21.77;100.00
9784;BME280;4931;44.874;-1.092;2022-09-13T04:15:00;100337.06;;;21.83;100.00
9784;BME280;4931;44.874;-1.092;2022-09-13T04:19:45;100321.09;;;21.83;100.00
9784;BME280;4931;44.874;-1.092;2022-09-13T04:24:31;100324.03;;;21.91;100.00
9784;BME280;4931;44.874;-1.092;2022-09-13T04:29:17;100334.97;;;21.99;100.00
9784;BME280;4931;44.874;-1.092;2022-09-13T04:34:05;100347.75;;;22.00;100.00
9784;BME280;4931;44.874;-1.092;2022-09-13T04:38:51;100339.59;;;22.11;100.00
9784;BME280;4931;44.874;-1.092;2022-09-13T04:43:36;100332.91;;;22.16;100.00
9784;BME280;4931;44.874;-1.092;2022-09-13T04:48:21;100339.88;;;22.26;100.00
9784;BME280;4931;44.874;-1.092;2022-09-13T04:53:09;100306.06;;;22.11;100.00
9784;BME280;4931;44.874;-1.092;2022-09-13T04:57:54;100310.50;;;22.12;100.00
9784;BME280;4931;44.874;-1.092;2022-09-13T05:02:39;100309.03;;;22.18;100.00
9784;BME280;4931;44.874;-1.092;2022-09-13T05:07:25;100315.28;;;22.12;100.00
9784;BME280;4931;44.874;-1.092;2022-09-13T05:12:13;100294.91;;;22.11;100.00
9784;BME280;4931;44.874;-1.092;2022-09-13T05:16:59;100297.41;;;22.16;100.00
9784;BME280;4931;44.874;-1.092;2022-09-13T05:21:44;100298.66;;;22.19;100.00
9784;BME280;4931;44.874;-1.092;2022-09-13T05:26:29;100289.97;;;22.24;100.00
9784;BME280;4931;44.874;-1.092;2022-09-13T05:31:19;100276.13;;;22.31;100.00
9784;BME280;4931;44.874;-1.092;2022-09-13T05:36:06;100273.34;;;22.31;100.00
9784;BME280;4931;44.874;-1.092;2022-09-13T05:40:53;100287.03;;;22.36;100.00
9784;BME280;4931;44.874;-1.092;2022-09-13T05:45:40;100289.75;;;22.56;100.00
9784;BME280;4931;44.874;-1.092;2022-09-13T05:50:28;100281.19;;;22.68;100.00
9784;BME280;4931;44.874;-1.092;2022-09-13T05:55:33;100277.94;;;22.66;100.00
9784;BME280;4931;44.874;-1.092;2022-09-13T06:00:19;100281.91;;;22.65;100.00
9784;BME280;4931;44.874;-1.092;2022-09-13T06:05:04;100296.25;;;22.64;100.00
9784;BME280;4931;44.874;-1.092;2022-09-13T06:09:54;100285.16;;;22.67;100.00
9784;BME280;4931;44.874;-1.092;2022-09-13T06:14:39;100293.47;;;22.64;100.00
9784;BME280;4931;44.874;-1.092;2022-09-13T06:19:24;100290.31;;;22.65;100.00
9784;BME280;4931;44.874;-1.092;2022-09-13T06:24:10;100289.88;;;22.63;100.00
9784;BME280;4931;44.874;-1.092;2022-09-13T06:28:58;100290.63;;;22.60;100.00
9784;BME280;4931;44.874;-1.092;2022-09-13T06:33:43;100279.56;;;22.67;100.00
9784;BME280;4931;44.874;-1.092;2022-09-13T06:38:28;100287.56;;;22.69;100.00
9784;BME280;4931;44.874;-1.092;2022-09-13T06:43:14;100285.16;;;22.67;100.00
9784;BME280;4931;44.874;-1.092;2022-09-13T06:48:02;100292.47;;;22.76;100.00
9784;BME280;4931;44.874;-1.092;2022-09-13T06:52:47;100291.03;;;22.85;100.00
9784;BME280;4931;44.874;-1.092;2022-09-13T06:57:32;100300.72;;;22.92;100.00
9784;BME280;4931;44.874;-1.092;2022-09-13T07:02:18;100294.25;;;22.87;100.00
9784;BME280;4931;44.874;-1.092;2022-09-13T07:07:05;100289.09;;;22.90;100.00
9784;BME280;4931;44.874;-1.092;2022-09-13T07:11:53;100289.78;;;23.10;100.00
9784;BME280;4931;44.874;-1.092;2022-09-13T07:16:38;100286.91;;;23.29;100.00
9784;BME280;4931;44.874;-1.092;2022-09-13T07:21:24;100276.78;;;23.82;100.00
9784;BME280;4931;44.874;-1.092;2022-09-13T07:26:13;100273.53;;;24.10;100.00
9784;BME280;4931;44.874;-1.092;2022-09-13T07:31:05;100278.09;;;24.29;100.00
9784;BME280;4931;44.874;-1.092;2022-09-13T07:35:54;100272.94;;;24.31;100.00
9784;BME280;4931;44.874;-1.092;2022-09-13T07:40:41;100274.53;;;24.32;100.00
9784;BME280;4931;44.874;-1.092;2022-09-13T07:45:29;100277.56;;;24.13;100.00
9784;BME280;4931;44.874;-1.092;2022-09-13T07:50:15;100272.94;;;24.31;100.00
9784;BME280;4931;44.874;-1.092;2022-09-13T07:55:00;100266.75;;;24.56;100.00
9784;BME280;4931;44.874;-1.092;2022-09-13T07:59:46;100265.19;;;24.62;100.00
9784;BME280;4931;44.874;-1.092;2022-09-13T08:04:33;100275.91;;;24.98;100.00
9784;BME280;4931;44.874;-1.092;2022-09-13T08:09:18;100265.94;;;25.08;100.00
9784;BME280;4931;44.874;-1.092;2022-09-13T08:14:04;100273.13;;;25.82;100.00
9784;BME280;4931;44.874;-1.092;2022-09-13T08:18:51;100273.16;;;25.86;100.00
9784;BME280;4931;44.874;-1.092;2022-09-13T08:23:39;100270.34;;;25.90;100.00
9784;BME280;4931;44.874;-1.092;2022-09-13T08:28:25;100281.19;;;25.98;100.00
9784;BME280;4931;44.874;-1.092;2022-09-13T08:33:11;100284.50;;;26.15;100.00
9784;BME280;4931;44.874;-1.092;2022-09-13T08:37:57;100286.88;;;26.13;100.00
9784;BME280;4931;44.874;-1.092;2022-09-13T08:42:50;100300.88;;;25.98;100.00
9784;BME280;4931;44.874;-1.092;2022-09-13T08:47:40;100318.09;;;25.93;100.00
9784;BME280;4931;44.874;-1.092;2022-09-13T08:52:29;100316.47;;;25.81;100.00
9784;BME280;4931;44.874;-1.092;2022-09-13T08:57:19;100324.50;;;25.79;100.00
9784;BME280;4931;44.874;-1.092;2022-09-13T09:02:26;100325.03;;;26.14;100.00
9784;BME280;4931;44.874;-1.092;2022-09-13T09:07:18;100324.59;;;26.05;100.00
9784;BME280;4931;44.874;-1.092;2022-09-13T09:12:13;100333.88;;;26.20;100.00
9784;BME280;4931;44.874;-1.092;2022-09-13T09:17:02;100328.69;;;26.25;100.00
9784;BME280;4931;44.874;-1.092;2022-09-13T09:21:50;100337.53;;;26.31;100.00
9784;BME280;4931;44.874;-1.092;2022-09-13T09:26:36;100332.72;;;26.46;100.00
9784;BME280;4931;44.874;-1.092;2022-09-13T09:31:29;100336.75;;;26.52;100.00
9784;BME280;4931;44.874;-1.092;2022-09-13T09:36:22;100323.13;;;26.90;100.00
9784;BME280;4931;44.874;-1.092;2022-09-13T09:41:18;100305.03;;;26.98;100.00
9784;BME280;4931;44.874;-1.092;2022-09-13T09:46:09;100309.47;;;26.85;100.00
9784;BME280;4931;44.874;-1.092;2022-09-13T09:50:57;100316.44;;;27.94;100.00
9784;BME280;4931;44.874;-1.092;2022-09-13T09:55:46;100306.19;;;28.33;100.00
9784;BME280;4931;44.874;-1.092;2022-09-13T10:00:49;100310.00;;;27.90;100.00
9784;BME280;4931;44.874;-1.092;2022-09-13T10:05:35;100303.41;;;28.26;100.00
9784;BME280;4931;44.874;-1.092;2022-09-13T10:10:23;100310.22;;;28.88;100.00
9784;BME280;4931;44.874;-1.092;2022-09-13T10:15:16;100293.50;;;29.46;100.00
9784;BME280;4931;44.874;-1.092;2022-09-13T10:20:19;100283.22;;;29.25;100.00
9784;BME280;4931;44.874;-1.092;2022-09-13T10:25:17;100278.00;;;29.58;100.00
9784;BME280;4931;44.874;-1.092;2022-09-13T10:30:06;100278.56;;;29.77;100.00
9784;BME280;4931;44.874;-1.092;2022-09-13T10:34:53;100291.38;;;30.47;100.00
9784;BME280;4931;44.874;-1.092;2022-09-13T10:39:52;100280.16;;;30.87;100.00
9784;BME280;4931;44.874;-1.092;2022-09-13T10:44:41;100266.16;;;30.56;100.00
9784;BME280;4931;44.874;-1.092;2022-09-13T10:49:41;100269.50;;;30.20;100.00
9784;BME280;4931;44.874;-1.092;2022-09-13T10:54:28;100265.97;;;30.67;100.00
9784;BME280;4931;44.874;-1.092;2022-09-13T10:59:22;100266.50;;;30.58;100.00
9784;BME280;4931;44.874;-1.092;2022-09-13T11:04:31;100272.25;;;30.27;100.00
9784;BME280;4931;44.874;-1.092;2022-09-13T11:09:22;100262.09;;;30.81;100.00
9784;BME280;4931;44.874;-1.092;2022-09-13T11:14:24;100258.06;;;31.02;100.00
9784;BME280;4931;44.874;-1.092;2022-09-13T11:19:33;100261.38;;;31.41;100.00
9784;BME280;4931;44.874;-1.092;2022-09-13T11:24:31;100258.72;;;30.86;100.00
9784;BME280;4931;44.874;-1.092;2022-09-13T11:29:45;100253.09;;;31.10;100.00
9784;BME280;4931;44.874;-1.092;2022-09-13T11:34:43;100260.94;;;31.22;100.00
9784;BME280;4931;44.874;-1.092;2022-09-13T11:39:37;100258.38;;;30.84;100.00
9784;BME280;4931;44.874;-1.092;2022-09-13T11:44:53;100266.97;;;31.44;99.33
9784;BME280;4931;44.874;-1.092;2022-09-13T11:49:51;100265.06;;;31.78;96.60
9784;BME280;4931;44.874;-1.092;2022-09-13T11:54:51;100252.66;;;31.72;93.40
9784;BME280;4931;44.874;-1.092;2022-09-13T11:59:44;100255.75;;;32.14;91.72
9784;BME280;4931;44.874;-1.092;2022-09-13T12:04:36;100245.59;;;31.60;88.65
9784;BME280;4931;44.874;-1.092;2022-09-13T12:09:25;100250.53;;;31.36;90.06
9784;BME280;4931;44.874;-1.092;2022-09-13T12:14:14;100246.19;;;31.31;85.60
9784;BME280;4931;44.874;-1.092;2022-09-13T12:19:06;100250.53;;;31.36;82.63
9784;BME280;4931;44.874;-1.092;2022-09-13T12:24:01;100237.69;;;31.11;77.14
9784;BME280;4931;44.874;-1.092;2022-09-13T12:28:51;100255.53;;;31.08;75.19
9784;BME280;4931;44.874;-1.092;2022-09-13T12:33:38;100239.28;;;31.12;75.07
9784;BME280;4931;44.874;-1.092;2022-09-13T12:38:36;100225.28;;;31.05;74.53
9784;BME280;4931;44.874;-1.092;2022-09-13T12:43:42;100211.38;;;31.31;72.70
9784;BME280;4931;44.874;-1.092;2022-09-13T12:48:42;100215.94;;;31.65;70.56
9784;BME280;4931;44.874;-1.092;2022-09-13T12:54:00;100219.50;;;31.69;71.73
9784;BME280;4931;44.874;-1.092;2022-09-13T12:59:03;100217.94;;;31.68;74.00
9784;BME280;4931;44.874;-1.092;2022-09-13T13:03:54;100218.50;;;32.12;75.23
9784;BME280;4931;44.874;-1.092;2022-09-13T13:08:51;100213.50;;;31.83;72.95
9784;BME280;4931;44.874;-1.092;2022-09-13T13:13:38;100198.63;;;31.79;70.92
9784;BME280;4931;44.874;-1.092;2022-09-13T13:18:27;100188.94;;;32.30;68.18
9784;BME280;4931;44.874;-1.092;2022-09-13T13:23:20;100194.94;;;32.48;65.46
9784;BME280;4931;44.874;-1.092;2022-09-13T13:33:26;100192.78;;;31.29;61.74
9784;BME280;4931;44.874;-1.092;2022-09-13T13:38:14;100188.31;;;31.12;63.57
9784;BME280;4931;44.874;-1.092;2022-09-13T13:43:30;100203.56;;;31.18;64.58
9784;BME280;4931;44.874;-1.092;2022-09-13T13:48:34;100196.06;;;31.08;65.76
9784;BME280;4931;44.874;-1.092;2022-09-13T13:53:32;100190.88;;;31.03;64.47
9784;BME280;4931;44.874;-1.092;2022-09-13T13:58:30;100163.28;;;31.47;63.07
9784;BME280;4931;44.874;-1.092;2022-09-13T14:03:29;100169.75;;;31.84;61.58
9784;BME280;4931;44.874;-1.092;2022-09-13T14:08:35;100151.56;;;31.08;60.23
9784;BME280;4931;44.874;-1.092;2022-09-13T14:13:40;100150.19;;;31.17;61.04
9784;BME280;4931;44.874;-1.092;2022-09-13T14:18:54;100171.72;;;31.31;64.00
9784;BME280;4931;44.874;-1.092;2022-09-13T14:23:41;100160.19;;;31.01;61.55
9784;BME280;4931;44.874;-1.092;2022-09-13T14:28:27;100166.91;;;31.68;65.65
9784;BME280;4931;44.874;-1.092;2022-09-13T14:33:21;100150.63;;;31.72;65.65
9784;BME280;4931;44.874;-1.092;2022-09-13T14:38:19;100156.81;;;31.67;65.07
9784;BME280;4931;44.874;-1.092;2022-09-13T14:43:13;100158.03;;;31.82;61.54
9784;BME280;4931;44.874;-1.092;2022-09-13T14:48:01;100162.81;;;31.69;60.30
9784;BME280;4931;44.874;-1.092;2022-09-13T14:52:51;100145.31;;;31.54;58.25
9784;BME280;4931;44.874;-1.092;2022-09-13T14:57:44;100130.16;;;31.44;57.62
9784;BME280;4931;44.874;-1.092;2022-09-13T15:02:35;100130.31;;;31.37;58.08
9784;BME280;4931;44.874;-1.092;2022-09-13T15:07:26;100136.69;;;31.04;59.33
9784;BME280;4931;44.874;-1.092;2022-09-13T15:12:21;100134.47;;;30.72;58.41
9784;BME280;4931;44.874;-1.092;2022-09-13T15:17:12;100133.84;;;30.84;58.14
9784;BME280;4931;44.874;-1.092;2022-09-13T15:22:14;100139.78;;;30.90;57.98
9784;BME280;4931;44.874;-1.092;2022-09-13T15:27:02;100127.44;;;31.20;56.65
9784;BME280;4931;44.874;-1.092;2022-09-13T15:31:49;100136.97;;;31.10;56.41
9784;BME280;4931;44.874;-1.092;2022-09-13T15:36:37;100143.06;;;31.28;57.32
9784;BME280;4931;44.874;-1.092;2022-09-13T15:41:22;100139.66;;;31.17;57.97
9784;BME280;4931;44.874;-1.092;2022-09-13T15:46:14;100124.91;;;31.06;59.34
9784;BME280;4931;44.874;-1.092;2022-09-13T15:51:08;100131.22;;;30.93;60.24
9784;BME280;4931;44.874;-1.092;2022-09-13T15:55:57;100124.69;;;30.76;62.05
9784;BME280;4931;44.874;-1.092;2022-09-13T16:00:43;100120.03;;;30.86;63.03
9784;BME280;4931;44.874;-1.092;2022-09-13T16:05:28;100117.34;;;30.79;62.97
9784;BME280;4931;44.874;-1.092;2022-09-13T16:10:17;100103.19;;;30.79;64.18
9784;BME280;4931;44.874;-1.092;2022-09-13T16:15:07;100088.13;;;30.66;62.46
9784;BME280;4931;44.874;-1.092;2022-09-13T16:19:53;100083.47;;;30.55;62.46
9784;BME280;4931;44.874;-1.092;2022-09-13T16:24:39;100093.91;;;30.58;63.74
9784;BME280;4931;44.874;-1.092;2022-09-13T16:29:24;100077.00;;;30.75;63.82
9784;BME280;4931;44.874;-1.092;2022-09-13T16:34:12;100083.31;;;30.62;62.92
9784;BME280;4931;44.874;-1.092;2022-09-13T16:38:57;100094.34;;;30.77;61.86
9784;BME280;4931;44.874;-1.092;2022-09-13T16:43:42;100090.56;;;30.63;60.09
9784;BME280;4931;44.874;-1.092;2022-09-13T16:48:28;100083.31;;;30.62;58.21
9784;BME280;4931;44.874;-1.092;2022-09-13T16:53:15;100080.25;;;30.53;57.69
9784;BME280;4931;44.874;-1.092;2022-09-13T16:58:00;100087.22;;;30.69;57.56
9784;BME280;4931;44.874;-1.092;2022-09-13T17:02:46;100083.81;;;30.34;57.14
9784;BME280;4931;44.874;-1.092;2022-09-13T17:07:31;100088.53;;;30.20;57.93
9784;BME280;4931;44.874;-1.092;2022-09-13T17:12:20;100105.13;;;30.18;57.75
9784;BME280;4931;44.874;-1.092;2022-09-13T17:17:05;100113.97;;;30.20;57.97
9784;BME280;4931;44.874;-1.092;2022-09-13T17:21:52;100125.66;;;29.99;59.04
9784;BME280;4931;44.874;-1.092;2022-09-13T17:26:38;100126.41;;;30.03;60.56
9784;BME280;4931;44.874;-1.092;2022-09-13T17:31:27;100127.28;;;30.00;60.30
9784;BME280;4931;44.874;-1.092;2022-09-13T17:36:14;100122.59;;;29.86;61.05
9784;BME280;4931;44.874;-1.092;2022-09-13T17:41:01;100110.13;;;29.83;61.42
9784;BME280;4931;44.874;-1.092;2022-09-13T17:45:47;100091.66;;;29.51;63.91
9784;BME280;4931;44.874;-1.092;2022-09-13T17:50:36;100104.31;;;29.67;64.12
9784;BME280;4931;44.874;-1.092;2022-09-13T17:55:22;100110.47;;;29.61;64.19
9784;BME280;4931;44.874;-1.092;2022-09-13T18:00:09;100114.34;;;29.71;64.29
9784;BME280;4931;44.874;-1.092;2022-09-13T18:04:55;100108.75;;;29.68;64.47
9784;BME280;4931;44.874;-1.092;2022-09-13T18:09:49;100112.44;;;29.64;65.24
9784;BME280;4931;44.874;-1.092;2022-09-13T18:14:34;100123.09;;;29.53;66.10
9784;BME280;4931;44.874;-1.092;2022-09-13T18:19:19;100129.59;;;29.50;66.78
9784;BME280;4931;44.874;-1.092;2022-09-13T18:24:25;100137.69;;;29.48;66.35
9784;BME280;4931;44.874;-1.092;2022-09-13T18:29:13;100140.22;;;29.42;66.61
9784;BME280;4931;44.874;-1.092;2022-09-13T18:34:01;100163.41;;;29.26;67.60
9784;BME280;4931;44.874;-1.092;2022-09-13T18:38:47;100166.13;;;29.34;67.96
9784;BME280;4931;44.874;-1.092;2022-09-13T18:43:35;100174.44;;;29.13;69.82
9784;BME280;4931;44.874;-1.092;2022-09-13T18:48:23;100184.25;;;29.02;72.58
9784;BME280;4931;44.874;-1.092;2022-09-13T18:53:09;100192.78;;;28.94;74.95
9784;BME280;4931;44.874;-1.092;2022-09-13T18:57:54;100196.63;;;28.77;76.94
9784;BME280;4931;44.874;-1.092;2022-09-13T19:02:39;100226.81;;;28.35;82.97
9784;BME280;4931;44.874;-1.092;2022-09-13T19:07:48;100239.03;;;28.17;87.26
9784;BME280;4931;44.874;-1.092;2022-09-13T19:12:33;100264.50;;;28.03;93.42
9784;BME280;4931;44.874;-1.092;2022-09-13T19:17:18;100271.13;;;27.56;100.00
9784;BME280;4931;44.874;-1.092;2022-09-13T19:22:03;100286.94;;;27.07;100.00
9784;BME280;4931;44.874;-1.092;2022-09-13T19:26:51;100296.56;;;26.70;100.00
9784;BME280;4931;44.874;-1.092;2022-09-13T19:31:37;100313.44;;;26.55;100.00
9784;BME280;4931;44.874;-1.092;2022-09-13T19:36:24;100327.84;;;26.21;100.00
9784;BME280;4931;44.874;-1.092;2022-09-13T19:41:16;100336.94;;;25.82;100.00
9784;BME280;4931;44.874;-1.092;2022-09-13T19:46:06;100344.09;;;25.68;100.00
9784;BME280;4931;44.874;-1.092;2022-09-13T19:50:51;100348.44;;;25.55;100.00
9784;BME280;4931;44.874;-1.092;2022-09-13T19:55:41;100353.56;;;25.39;100.00
9784;BME280;4931;44.874;-1.092;2022-09-13T20:00:27;100359.44;;;25.19;100.00
9784;BME280;4931;44.874;-1.092;2022-09-13T20:05:17;100366.63;;;25.20;100.00
9784;BME280;4931;44.874;-1.092;2022-09-13T20:10:09;100364.97;;;25.12;100.00
9784;BME280;4931;44.874;-1.092;2022-09-13T20:14:54;100344.06;;;25.02;100.00
9784;BME280;4931;44.874;-1.092;2022-09-13T20:19:39;100328.69;;;24.85;100.00
9784;BME280;4931;44.874;-1.092;2022-09-13T20:24:34;100336.34;;;24.88;100.00
9784;BME280;4931;44.874;-1.092;2022-09-13T20:29:19;100338.34;;;24.91;100.00
9784;BME280;4931;44.874;-1.092;2022-09-13T20:34:07;100319.91;;;24.86;100.00
9784;BME280;4931;44.874;-1.092;2022-09-13T20:38:52;100316.22;;;24.79;100.00
9784;BME280;4931;44.874;-1.092;2022-09-13T20:43:47;100326.56;;;24.71;100.00
9784;BME280;4931;44.874;-1.092;2022-09-13T20:48:34;100337.22;;;24.55;100.00
9784;BME280;4931;44.874;-1.092;2022-09-13T20:53:19;100331.56;;;24.51;100.00
9784;BME280;4931;44.874;-1.092;2022-09-13T20:58:04;100319.50;;;24.43;100.00
9784;BME280;4931;44.874;-1.092;2022-09-13T21:02:52;100308.03;;;24.22;100.00
9784;BME280;4931;44.874;-1.092;2022-09-13T21:07:39;100298.75;;;24.10;100.00
9784;BME280;4931;44.874;-1.092;2022-09-13T21:12:37;100298.41;;;24.15;100.00
9784;BME280;4931;44.874;-1.092;2022-09-13T21:17:22;100307.19;;;24.14;100.00
9784;BME280;4931;44.874;-1.092;2022-09-13T21:22:11;100307.53;;;24.09;100.00
9784;BME280;4931;44.874;-1.092;2022-09-13T21:26:56;100312.75;;;24.10;100.00
9784;BME280;4931;44.874;-1.092;2022-09-13T21:31:42;100309.72;;;23.92;100.00
9784;BME280;4931;44.874;-1.092;2022-09-13T21:36:27;100302.53;;;23.61;100.00
9784;BME280;4931;44.874;-1.092;2022-09-13T21:41:17;100307.34;;;23.64;100.00
9784;BME280;4931;44.874;-1.092;2022-09-13T21:46:05;100292.16;;;23.61;100.00
9784;BME280;4931;44.874;-1.092;2022-09-13T21:50:50;100289.31;;;23.31;100.00
9784;BME280;4931;44.874;-1.092;2022-09-13T21:55:37;100280.22;;;23.11;100.00
9784;BME280;4931;44.874;-1.092;2022-09-13T22:00:26;100298.75;;;23.19;100.00
9784;BME280;4931;44.874;-1.092;2022-09-13T22:05:14;100304.09;;;22.78;100.00
9784;BME280;4931;44.874;-1.092;2022-09-13T22:09:59;100315.66;;;22.76;100.00
9784;BME280;4931;44.874;-1.092;2022-09-13T22:14:45;100307.00;;;22.85;100.00
9784;BME280;4931;44.874;-1.092;2022-09-13T22:19:32;100318.84;;;22.75;100.00
9784;BME280;4931;44.874;-1.092;2022-09-13T22:24:19;100320.69;;;22.67;100.00
9784;BME280;4931;44.874;-1.092;2022-09-13T22:29:05;100327.03;;;22.41;100.00
9784;BME280;4931;44.874;-1.092;2022-09-13T22:33:52;100319.06;;;22.43;100.00
9784;BME280;4931;44.874;-1.092;2022-09-13T22:38:41;100315.09;;;22.44;100.00
9784;BME280;4931;44.874;-1.092;2022-09-13T22:43:28;100320.47;;;22.33;100.00
9784;BME280;4931;44.874;-1.092;2022-09-13T22:48:13;100317.78;;;22.17;100.00
9784;BME280;4931;44.874;-1.092;2022-09-13T22:52:59;100314.69;;;22.22;100.00
9784;BME280;4931;44.874;-1.092;2022-09-13T22:57:51;100334.25;;;22.22;100.00
9784;BME280;4931;44.874;-1.092;2022-09-13T23:02:36;100339.28;;;22.16;100.00
9784;BME280;4931;44.874;-1.092;2022-09-13T23:07:24;100320.59;;;21.97;100.00
9784;BME280;4931;44.874;-1.092;2022-09-13T23:12:10;100333.31;;;21.95;100.00
9784;BME280;4931;44.874;-1.092;2022-09-13T23:16:57;100312.94;;;21.94;100.00
9784;BME280;4931;44.874;-1.092;2022-09-13T23:21:43;100304.44;;;21.87;100.00
9784;BME280;4931;44.874;-1.092;2022-09-13T23:26:28;100305.59;;;21.66;100.00
9784;BME280;4931;44.874;-1.092;2022-09-13T23:31:16;100319.84;;;21.61;100.00
9784;BME280;4931;44.874;-1.092;2022-09-13T23:36:05;100336.16;;;21.59;100.00
9784;BME280;4931;44.874;-1.092;2022-09-13T23:40:50;100338.34;;;21.69;100.00
9784;BME280;4931;44.874;-1.092;2022-09-13T23:45:36;100335.25;;;21.55;100.00
9784;BME280;4931;44.874;-1.092;2022-09-13T23:50:21;100324.53;;;21.57;100.00
9784;BME280;4931;44.874;-1.092;2022-09-13T23:55:09;100315.81;;;21.43;100.00
9784;BME280;4931;44.874;-1.092;2022-09-13T23:59:56;100328.78;;;21.35;100.00
